Flight Track Log - Related Links

Times and Time Zones

All times are in EDT time to prevent confusion due to time zone crossing. See the SKW6528 flight status page for this flight to view local times or setup timezone preferences in your user account.

Time Position Orientation Groundspeed Altitude Reporting Facility
EDT Latitude Longitude Course Direction KTS MPH feet Rate Location/Type
Mon 11:49:08 PM 33.4333 -112.0333 292° West 170 196 1,900  Level Phoenix TRACON
Mon 11:50:42 PM 33.4028 -112.1331 250° West 207 238 4,400 1,846 Climbing Los Angeles Center
Mon 11:51:00 PM 33.4348 -112.4191 273° West  Level FlightAware Approximate
Mon 11:51:44 PM 33.4008 -112.2300 269° West 262 302 6,700  Level Los Angeles Center
Mon 11:52:00 PM 33.4405 -112.5586 273° West  Level FlightAware Approximate
Mon 11:52:46 PM 33.4094 -112.3225 276° West 277 319 8,900  Level Los Angeles Center
Mon 11:53:00 PM 33.4461 -112.6982 273° West  Level FlightAware Approximate
Mon 11:53:48 PM 33.4186 -112.4217 276° West 295 339 10,500  Level Los Angeles Center
Mon 11:54:00 PM 33.4565 -112.8363 292° West  Level FlightAware Approximate
Mon 11:54:50 PM 33.4269 -112.5311 275° West 348 400 11,500  Level Albuquerque Center
Mon 11:55:51 PM 33.4394 -112.6597 277° West 364 419 13,100 1,525 Climbing Albuquerque Center
Mon 11:56:52 PM 33.4500 -112.7836 276° West 371 427 14,600 1,525 Climbing Albuquerque Center
Mon 11:57:53 PM 33.4817 -112.9014 288° West 375 432 16,200 1,756 Climbing Albuquerque Center
Mon 11:58:55 PM 33.5314 -113.0414 293° West 380 437 18,200 2,000 Climbing Albuquerque Center
Mon 11:59:56 PM 33.5725 -113.1544 294° West 375 432 20,300 1,721 Climbing Albuquerque Center
Tue 12:00:57 AM 33.6097 -113.2614 293° West 357 411 21,700 1,328 Climbing Albuquerque Center
Tue 12:01:58 AM 33.6469 -113.3675 293° West 355 409 23,000 1,171 Climbing Albuquerque Center
Tue 12:03:00 AM 33.6872 -113.4800 293° West 362 417 24,100 1,171 Climbing Albuquerque Center
Tue 12:04:01 AM 33.7272 -113.5944 293° West 370 426 25,400 885 Climbing Albuquerque Center
Tue 12:05:02 AM 33.7661 -113.7089 292° West 370 426 25,900 295 Climbing Albuquerque Center
Tue 12:06:03 AM 33.8089 -113.8269 294° West 380 437 26,000 49 Climbing Albuquerque Center
Tue 12:07:04 AM 33.8556 -113.9664 292° West 376 433 26,000  Level Albuquerque Center
Tue 12:08:05 AM 33.8969 -114.0819 293° West 375 432 26,000  Level Albuquerque Center
Tue 12:09:07 AM 33.9375 -114.2011 292° West 380 437 26,000  Level Albuquerque Center
Tue 12:10:08 AM 33.9789 -114.3217 293° West 384 442 26,000  Level Albuquerque Center
Tue 12:11:09 AM 33.9928 -114.4533 277° West 397 457 26,000  Level Albuquerque Center
Tue 12:12:20 AM 34.0081 -114.5975 277° West 415 478 26,000  Level Los Angeles Center
Tue 12:13:21 AM 34.0233 -114.7692 276° West 429 494 26,000  Level Los Angeles Center
Tue 12:14:23 AM 34.0372 -114.9158 277° West 440 506 26,000  Level Los Angeles Center
Tue 12:15:24 AM 34.0517 -115.0633 277° West 443 510 26,000  Level Los Angeles Center
Tue 12:16:26 AM 34.0647 -115.2108 276° West 445 512 26,000  Level Los Angeles Center
Tue 12:17:27 AM 34.0781 -115.3600 276° West 448 516 26,000  Level Los Angeles Center
Tue 12:18:29 AM 34.0903 -115.5108 276° West 452 520 26,000  Level Los Angeles Center
Tue 12:19:30 AM 34.1061 -115.6903 276° West 451 519 26,000  Level Los Angeles Center
Tue 12:20:32 AM 34.1019 -115.8397 268° West 453 521 26,000  Level Los Angeles Center
Tue 12:21:33 AM 34.0800 -115.9847 260° West 451 519 26,000  Level Los Angeles Center
Tue 12:22:34 AM 34.0583 -116.1308 260° West 445 512 26,000  Level Los Angeles Center
Tue 12:23:36 AM 34.0367 -116.2764 260° West 445 512 26,000  Level Los Angeles Center
Tue 12:24:37 AM 34.0144 -116.4231 260° West 446 513 26,000 -295 Level Los Angeles Center
Tue 12:25:38 AM 33.9986 -116.5711 263° West 449 517 25,400 -1,610 Descending Los Angeles Center
Tue 12:26:40 AM 33.9842 -116.7478 264° West 444 511 22,700 -2,439 Descending Los Angeles Center
Tue 12:27:41 AM 33.9722 -116.8856 264° West 422 486 20,400 -2,139 Descending Los Angeles Center
Tue 12:28:21 AM 33.9667 -116.9667 265° West 365 420 19,100 -1,740 Descending Southern California TRACON
Tue 12:29:21 AM 33.9500 -117.0833 260° West 341 392 17,500 -1,333 Descending Southern California TRACON
Tue 12:30:27 AM 33.9500 -117.2000 270° West 320 368 16,300 -992 Descending Southern California TRACON
Tue 12:31:22 AM 33.9333 -117.3000 259° West 330 380 15,500 -1,000 Descending Southern California TRACON
Tue 12:32:21 AM 33.9500 -117.4000 281° West 322 371 14,400 -1,160 Descending Southern California TRACON
Tue 12:33:21 AM 33.9833 -117.5000 292° West 317 365 13,200 -1,238 Descending Southern California TRACON
Tue 12:34:27 AM 34.0167 -117.6167 289° West 365 420 11,800 -1,190 Descending Southern California TRACON
Tue 12:35:22 AM 34.0000 -117.7000 256° West 301 346 10,800 -1,200 Descending Southern California TRACON
Tue 12:36:22 AM 34.0000 -117.8000 270° West 298 343 9,500 -1,400 Descending Southern California TRACON
Tue 12:37:22 AM 33.9833 -117.9000 259° West 274 315 8,000 -1,450 Descending Southern California TRACON
Tue 12:38:22 AM 33.9833 -117.9833 270° West 240 276 6,600 -1,300 Descending Southern California TRACON
Tue 12:39:22 AM 33.9667 -118.0500 253° West 223 257 5,400 -1,250 Descending Southern California TRACON
Tue 12:40:22 AM 33.9667 -118.1333 270° West 205 236 4,100 -1,052 Descending Southern California TRACON
Tue 12:40:59 AM 33.9603 -118.1586 253° West 209 241 3,700 -735 Descending Los Angeles Center
Tue 12:42:00 AM 33.9553 -118.2167 264° West 184 212 2,900 -885 Descending Los Angeles Center
Tue 12:43:01 AM 33.9489 -118.2772 263° West 183 211 1,900 -976 Descending Los Angeles Center
Tue 12:44:03 AM 33.9422 -118.3369 262° West 158 182 900 -829 Descending Los Angeles Center
Tue 12:45:04 AM 33.9386 -118.3811 264° West 143 165 200 -689 Descending Los Angeles Center
Tue 12:47:00 AM 33.9333 -118.4000 270° West  Level FlightAware Approximate
Tue 12:54:00 AM 33.9425 -118.4081 270° West  Level Estimated

Login

Don't have an account? Register now (free) for customized features, flight alerts, and more!